createdAt,value
2023-01-09T00:01:58.098Z,2.77
2023-01-09T00:04:29.414Z,2.27
2023-01-09T00:07:00.737Z,2.83
2023-01-09T00:09:32.096Z,2.43
2023-01-09T00:12:03.684Z,3.13
2023-01-09T00:14:34.973Z,2.70
2023-01-09T00:17:06.276Z,2.90
2023-01-09T00:19:37.582Z,3.70
2023-01-09T00:22:09.624Z,2.53
2023-01-09T00:24:40.935Z,3.53
2023-01-09T00:27:14.198Z,4.13
2023-01-09T00:29:46.528Z,2.53
2023-01-09T00:32:17.829Z,3.00
2023-01-09T00:34:49.115Z,3.30
2023-01-09T00:37:20.481Z,2.90
2023-01-09T00:39:51.773Z,2.90
2023-01-09T00:42:26.551Z,2.97
2023-01-09T00:45:02.372Z,3.77
2023-01-09T00:47:39.782Z,3.58
2023-01-09T00:50:16.415Z,2.87
2023-01-09T00:52:48.170Z,4.50
2023-01-09T00:55:19.647Z,2.57
2023-01-09T00:57:50.967Z,2.97
2023-01-09T01:00:22.325Z,3.37
2023-01-09T01:02:53.711Z,3.53
2023-01-09T01:05:43.652Z,3.30
2023-01-09T01:08:16.854Z,3.17
2023-01-09T01:10:48.185Z,2.57
2023-01-09T01:13:19.791Z,4.27
2023-01-09T01:15:51.213Z,3.30
2023-01-09T01:18:22.475Z,4.97
2023-01-09T01:20:53.814Z,5.47
2023-01-09T01:23:25.456Z,4.17
2023-01-09T01:25:56.727Z,2.67
2023-01-09T01:28:27.985Z,2.73
2023-01-09T01:30:59.832Z,3.40
2023-01-09T01:33:32.111Z,2.83
2023-01-09T01:36:06.850Z,3.90
2023-01-09T01:38:38.139Z,3.63
2023-01-09T01:41:09.667Z,4.83
2023-01-09T01:43:52.711Z,2.83
2023-01-09T01:46:24.104Z,2.93
2023-01-09T01:49:06.118Z,4.60
2023-01-09T01:51:41.603Z,3.07
2023-01-09T01:54:17.933Z,3.20
2023-01-09T01:59:38.355Z,2.93
2023-01-09T02:02:10.440Z,2.90
2023-01-09T02:04:42.732Z,4.33
2023-01-09T02:07:14.117Z,2.40
2023-01-09T02:09:46.129Z,2.53
2023-01-09T02:12:24.988Z,2.07
2023-01-09T02:15:07.946Z,5.13
2023-01-09T02:18:23.394Z,2.37
2023-01-09T02:21:08.590Z,1.83
2023-01-09T02:24:08.668Z,2.30
2023-01-09T02:27:03.602Z,4.03
2023-01-09T02:29:47.586Z,1.83
2023-01-09T02:32:35.209Z,4.33
2023-01-09T02:35:20.821Z,4.47
2023-01-09T02:38:23.369Z,2.53
2023-01-09T02:41:02.479Z,2.30
2023-01-09T02:43:33.861Z,3.80
2023-01-09T02:46:05.338Z,2.00
2023-01-09T02:48:36.840Z,2.47
2023-01-09T02:51:20.072Z,3.17
2023-01-09T02:54:20.349Z,2.20
2023-01-09T02:57:21.838Z,2.60
2023-01-09T03:00:10.517Z,3.27
2023-01-09T03:02:57.658Z,2.73
2023-01-09T03:05:37.473Z,2.17
2023-01-09T03:08:20.874Z,2.10
2023-01-09T03:11:04.681Z,2.20
2023-01-09T03:13:54.632Z,3.13
2023-01-09T03:16:35.288Z,1.97
2023-01-09T03:19:12.902Z,2.77
2023-01-09T03:21:45.008Z,1.93
2023-01-09T03:24:17.483Z,1.63
2023-01-09T03:26:48.746Z,3.60
2023-01-09T03:29:20.088Z,2.83
2023-01-09T03:31:51.524Z,3.47
2023-01-09T03:34:22.847Z,3.67
2023-01-09T03:36:54.172Z,2.07
2023-01-09T03:39:25.491Z,2.50
2023-01-09T03:41:56.826Z,2.67
2023-01-09T03:44:28.129Z,3.40
2023-01-09T03:46:59.399Z,4.23
2023-01-09T03:49:30.663Z,1.50
2023-01-09T03:52:01.942Z,2.13
2023-01-09T03:54:33.232Z,2.23
2023-01-09T03:57:04.520Z,2.00
2023-01-09T03:59:35.884Z,1.63
2023-01-09T04:02:07.399Z,1.93
2023-01-09T04:04:38.865Z,2.70
2023-01-09T04:07:10.194Z,2.50
2023-01-09T04:09:41.462Z,1.57
2023-01-09T04:12:14.197Z,1.67
2023-01-09T04:14:45.467Z,1.43
2023-01-09T04:17:16.749Z,5.77
2023-01-09T04:19:48.299Z,2.07
2023-01-09T04:22:19.566Z,3.03
2023-01-09T04:24:51.024Z,3.07
2023-01-09T04:27:22.445Z,1.73
2023-01-09T04:29:53.752Z,2.80
2023-01-09T04:32:27.480Z,2.77
2023-01-09T04:34:58.759Z,2.80
2023-01-09T04:37:30.084Z,5.57
2023-01-09T04:40:01.517Z,3.47
2023-01-09T04:42:32.792Z,3.07
2023-01-09T04:45:05.493Z,4.70
2023-01-09T04:47:36.909Z,1.67
2023-01-09T04:50:13.589Z,2.87
2023-01-09T04:52:44.919Z,5.07
2023-01-09T04:55:16.242Z,1.77
2023-01-09T04:57:47.647Z,2.67
2023-01-09T05:00:19.119Z,3.00
2023-01-09T05:02:50.388Z,2.67
2023-01-09T05:05:21.667Z,3.50
2023-01-09T05:07:52.983Z,4.03
2023-01-09T05:10:25.296Z,2.67
2023-01-09T05:12:56.684Z,2.50
2023-01-09T05:15:28.247Z,3.23
2023-01-09T05:17:59.565Z,2.90
2023-01-09T05:20:30.840Z,4.00
2023-01-09T05:23:02.123Z,1.10
2023-01-09T05:25:33.395Z,2.77
2023-01-09T05:28:04.798Z,2.77
2023-01-09T05:30:36.095Z,1.73
2023-01-09T05:33:07.868Z,1.97
2023-01-09T05:35:39.173Z,1.73
2023-01-09T05:38:11.506Z,1.27
2023-01-09T05:40:42.830Z,2.13
2023-01-09T05:43:15.143Z,1.17
2023-01-09T05:45:46.478Z,1.47
2023-01-09T05:48:17.858Z,3.80
2023-01-09T05:50:49.196Z,1.30
2023-01-09T05:53:20.473Z,2.03
2023-01-09T05:55:51.744Z,1.77
2023-01-09T05:58:23.028Z,1.67
2023-01-09T06:00:54.401Z,2.27
2023-01-09T06:03:25.865Z,1.27
2023-01-09T06:05:57.126Z,1.07
2023-01-09T06:08:28.409Z,2.17
2023-01-09T06:10:59.674Z,1.00
2023-01-09T06:13:31.182Z,1.20
2023-01-09T06:16:02.572Z,1.63
2023-01-09T06:18:33.967Z,2.70
2023-01-09T06:21:05.485Z,1.77
2023-01-09T06:23:36.755Z,0.97
2023-01-09T06:26:08.021Z,2.47
2023-01-09T06:28:39.424Z,2.07
2023-01-09T06:31:10.843Z,0.93
2023-01-09T06:33:42.151Z,1.53
2023-01-09T06:36:13.704Z,2.53
2023-01-09T06:38:44.969Z,3.33
2023-01-09T06:41:16.243Z,2.90
2023-01-09T06:43:47.556Z,2.43
2023-01-09T06:46:18.866Z,4.00
2023-01-09T06:48:50.202Z,3.27
2023-01-09T06:51:21.479Z,3.60
2023-01-09T06:53:52.756Z,2.73
2023-01-09T06:56:24.036Z,2.13
2023-01-09T06:58:55.786Z,2.10
2023-01-09T07:01:27.179Z,2.70
2023-01-09T07:03:58.571Z,2.53
2023-01-09T07:06:29.942Z,3.57
2023-01-09T07:09:01.327Z,3.00
2023-01-09T07:11:32.875Z,3.87
2023-01-09T07:14:04.260Z,4.30
2023-01-09T07:16:35.554Z,3.03
2023-01-09T07:19:06.846Z,3.20
2023-01-09T07:21:38.156Z,4.23
2023-01-09T07:24:09.426Z,4.00
2023-01-09T07:26:43.198Z,4.03
2023-01-09T07:29:14.607Z,7.50
2023-01-09T07:31:45.899Z,5.17
2023-01-09T07:34:17.364Z,6.53
2023-01-09T07:36:50.578Z,6.00
2023-01-09T07:39:21.941Z,4.10
2023-01-09T07:41:53.214Z,4.97
2023-01-09T07:44:24.567Z,9.40
2023-01-09T07:46:55.830Z,3.87
2023-01-09T07:49:27.312Z,6.73
2023-01-09T07:51:58.855Z,7.27
2023-01-09T07:54:30.395Z,5.73
2023-01-09T07:57:01.775Z,7.57
2023-01-09T07:59:33.055Z,5.80
2023-01-09T08:02:05.609Z,5.53
2023-01-09T08:04:36.973Z,6.53
2023-01-09T08:07:08.241Z,6.03
2023-01-09T08:09:39.509Z,8.50
2023-01-09T08:12:10.784Z,7.77
2023-01-09T08:14:42.141Z,8.13
2023-01-09T08:17:13.613Z,7.03
2023-01-09T08:19:44.873Z,10.83
2023-01-09T08:22:16.234Z,6.50
2023-01-09T08:24:47.487Z,7.00
2023-01-09T08:27:18.926Z,8.00
2023-01-09T08:29:50.187Z,7.43
2023-01-09T08:32:21.472Z,7.70
2023-01-09T08:34:52.788Z,11.23
2023-01-09T08:37:24.075Z,12.37
2023-01-09T08:39:56.375Z,9.80
2023-01-09T08:42:46.181Z,7.97
2023-01-09T08:45:36.287Z,8.43
2023-01-09T08:48:07.572Z,8.63
2023-01-09T08:50:38.827Z,8.57
2023-01-09T08:53:11.005Z,13.77
2023-01-09T08:55:42.902Z,8.27
2023-01-09T08:58:14.311Z,12.53
2023-01-09T09:00:45.602Z,9.10
2023-01-09T09:03:17.498Z,7.73
2023-01-09T09:05:48.744Z,11.87
2023-01-09T09:08:20.359Z,7.70
2023-01-09T09:10:51.648Z,10.83
2023-01-09T09:13:22.923Z,11.73
2023-01-09T09:15:54.218Z,10.30
2023-01-09T09:18:25.645Z,8.83
2023-01-09T09:20:56.917Z,7.93
2023-01-09T09:23:28.185Z,8.63
2023-01-09T09:25:59.432Z,12.57
2023-01-09T09:28:30.699Z,13.67
2023-01-09T09:31:05.472Z,12.80
2023-01-09T09:33:36.768Z,17.07
2023-01-09T09:36:08.196Z,8.73
2023-01-09T09:38:39.473Z,9.03
2023-01-09T09:42:05.692Z,11.47
2023-01-09T09:44:53.430Z,13.03
2023-01-09T09:47:49.471Z,11.93
2023-01-09T09:50:32.246Z,7.23
2023-01-09T09:53:12.066Z,11.13
2023-01-09T09:55:46.476Z,8.50
2023-01-09T09:58:35.697Z,9.10
2023-01-09T10:01:08.252Z,7.97
2023-01-09T10:03:55.453Z,7.93
2023-01-09T10:06:28.536Z,10.37
2023-01-09T10:09:12.032Z,12.97
2023-01-09T10:11:55.392Z,8.47
2023-01-09T10:14:27.184Z,12.63
2023-01-09T10:17:21.480Z,8.40
2023-01-09T10:20:03.314Z,8.33
2023-01-09T10:22:58.285Z,8.40
2023-01-09T10:25:48.263Z,12.57
2023-01-09T10:28:26.923Z,8.20
2023-01-09T10:31:05.161Z,9.30
2023-01-09T10:34:04.209Z,10.00
2023-01-09T10:36:59.844Z,9.17
2023-01-09T10:40:09.549Z,6.93
2023-01-09T10:42:47.298Z,9.27
2023-01-09T10:45:35.779Z,14.67
2023-01-09T10:48:33.658Z,7.80
2023-01-09T10:51:17.573Z,9.33
2023-01-09T10:53:51.758Z,9.30
2023-01-09T10:56:26.428Z,9.73
2023-01-09T10:58:58.037Z,7.43
2023-01-09T11:01:33.276Z,11.03
2023-01-09T11:04:32.265Z,5.47
2023-01-09T11:07:15.685Z,8.70
2023-01-09T11:10:02.170Z,6.17
2023-01-09T11:12:35.130Z,5.43
2023-01-09T11:15:15.499Z,7.33
2023-01-09T11:17:47.637Z,9.90
2023-01-09T11:20:28.407Z,10.60
2023-01-09T11:22:59.733Z,5.87
2023-01-09T11:25:31.249Z,6.93
2023-01-09T11:28:02.477Z,8.87
2023-01-09T11:30:51.015Z,8.97
2023-01-09T11:33:27.846Z,10.37
2023-01-09T11:36:15.605Z,14.03
2023-01-09T11:38:49.629Z,10.40
2023-01-09T11:41:24.033Z,11.00
2023-01-09T11:43:58.288Z,14.10
2023-01-09T11:46:34.001Z,8.53
2023-01-09T11:49:19.760Z,10.90
2023-01-09T11:52:12.549Z,6.73
2023-01-09T11:55:04.201Z,8.60
2023-01-09T11:57:35.577Z,13.47
2023-01-09T12:00:41.849Z,6.30
2023-01-09T12:03:43.355Z,9.47
2023-01-09T12:06:42.275Z,5.60
2023-01-09T12:09:43.530Z,4.97
2023-01-09T12:12:38.214Z,8.40
2023-01-09T12:15:40.683Z,7.37
2023-01-09T12:18:29.221Z,8.40
2023-01-09T12:21:17.934Z,8.90
2023-01-09T12:24:02.301Z,8.17
2023-01-09T12:26:42.196Z,7.73
2023-01-09T12:29:38.131Z,8.90
2023-01-09T12:32:26.232Z,11.63
2023-01-09T12:35:30.814Z,9.10
2023-01-09T12:38:37.723Z,14.43
2023-01-09T12:41:50.876Z,7.93
2023-01-09T12:44:37.686Z,6.83
2023-01-09T12:47:47.920Z,11.50
2023-01-09T12:50:43.847Z,10.27
2023-01-09T12:53:25.711Z,5.73
2023-01-09T12:56:03.762Z,5.70
2023-01-09T12:58:47.036Z,9.23
2023-01-09T13:01:24.410Z,4.73
2023-01-09T13:04:08.504Z,5.57
2023-01-09T13:06:45.373Z,8.40
2023-01-09T13:09:26.416Z,10.67
2023-01-09T13:12:08.835Z,10.67
2023-01-09T13:15:04.039Z,14.47
2023-01-09T13:17:42.409Z,13.50
2023-01-09T13:20:32.535Z,16.07
2023-01-09T13:23:05.762Z,14.37
2023-01-09T13:25:52.019Z,15.80
2023-01-09T13:28:36.275Z,10.13
2023-01-09T13:31:25.790Z,7.00
2023-01-09T13:33:58.991Z,5.90
2023-01-09T13:36:33.595Z,7.57
2023-01-09T13:39:06.285Z,6.47
2023-01-09T13:42:06.539Z,6.23
2023-01-09T13:44:37.997Z,8.53
2023-01-09T13:47:27.893Z,7.03
2023-01-09T13:50:11.380Z,8.13
2023-01-09T13:52:43.685Z,5.77
2023-01-09T13:55:17.846Z,8.20
2023-01-09T13:58:04.444Z,7.33
2023-01-09T14:00:35.731Z,7.22
2023-01-09T14:03:18.645Z,9.60
2023-01-09T14:05:49.867Z,8.27
2023-01-09T14:08:23.880Z,8.77
2023-01-09T14:11:00.806Z,6.23
2023-01-09T14:13:43.398Z,4.40
2023-01-09T14:16:26.973Z,6.80
2023-01-09T14:19:02.204Z,3.70
2023-01-09T14:21:50.286Z,4.07
2023-01-09T14:24:42.335Z,3.50
2023-01-09T14:27:51.666Z,5.77
2023-01-09T14:30:26.011Z,2.20
2023-01-09T14:33:01.990Z,2.50
2023-01-09T14:35:51.985Z,4.57
2023-01-09T14:38:31.345Z,4.83
2023-01-09T14:41:50.543Z,3.40
2023-01-09T14:44:35.518Z,2.63
2023-01-09T14:47:39.240Z,3.30
2023-01-09T14:50:25.579Z,2.03
2023-01-09T14:53:05.658Z,5.60
2023-01-09T14:55:50.549Z,4.60
2023-01-09T14:58:29.445Z,3.77
2023-01-09T15:01:10.111Z,4.60
2023-01-09T15:03:51.934Z,3.00
2023-01-09T15:06:26.492Z,6.10
2023-01-09T15:09:06.207Z,2.70
2023-01-09T15:11:39.932Z,4.77
2023-01-09T15:14:41.381Z,4.07
2023-01-09T15:17:25.596Z,3.23
2023-01-09T15:19:59.611Z,3.50
2023-01-09T15:22:36.763Z,3.97
2023-01-09T15:25:22.737Z,3.83
2023-01-09T15:28:00.649Z,3.37
2023-01-09T15:30:34.890Z,4.30
2023-01-09T15:33:13.843Z,3.20
2023-01-09T15:35:47.580Z,4.37
2023-01-09T15:38:23.626Z,3.43
2023-01-09T15:40:58.555Z,4.63
2023-01-09T15:43:31.799Z,5.50
2023-01-09T15:46:03.320Z,3.73
2023-01-09T15:48:35.693Z,8.47
2023-01-09T15:51:14.608Z,4.10
2023-01-09T15:53:50.845Z,8.33
2023-01-09T15:58:58.444Z,8.70
2023-01-09T16:01:33.651Z,9.03
2023-01-09T16:04:13.378Z,10.30
2023-01-09T16:06:52.491Z,10.07
2023-01-09T16:09:28.245Z,9.47
2023-01-09T16:12:01.749Z,6.40
2023-01-09T16:14:38.441Z,8.17
2023-01-09T16:17:17.737Z,26.60
2023-01-09T16:19:51.331Z,12.33
2023-01-09T16:22:30.623Z,6.13
2023-01-09T16:25:25.232Z,15.57
2023-01-09T16:28:14.982Z,18.93
2023-01-09T16:30:55.388Z,12.67
2023-01-09T16:33:29.256Z,11.20
2023-01-09T16:36:01.659Z,11.83
2023-01-09T16:38:33.111Z,9.90
2023-01-09T16:41:25.788Z,16.33
2023-01-09T16:43:57.153Z,10.13
2023-01-09T16:46:28.719Z,12.80
2023-01-09T16:49:00.123Z,7.33
2023-01-09T16:51:31.491Z,5.53
2023-01-09T16:54:02.818Z,9.10
2023-01-09T16:56:36.261Z,7.67
2023-01-09T16:59:14.803Z,9.90
2023-01-09T17:01:48.125Z,12.40
2023-01-09T17:04:20.271Z,11.43
2023-01-09T17:06:51.744Z,13.00
2023-01-09T17:09:25.825Z,9.23
2023-01-09T17:11:58.454Z,28.58
2023-01-09T17:14:29.800Z,40.83
2023-01-09T17:17:01.782Z,25.93
2023-01-09T17:19:33.074Z,35.13
2023-01-09T17:22:05.027Z,38.40
2023-01-09T17:24:54.951Z,22.33
2023-01-09T17:27:49.517Z,22.00
2023-01-09T17:30:21.562Z,16.20
2023-01-09T17:32:52.856Z,13.73
2023-01-09T17:35:24.124Z,15.87
2023-01-09T17:37:55.448Z,15.47
2023-01-09T17:40:28.331Z,12.43
2023-01-09T17:42:59.582Z,14.93
2023-01-09T17:45:30.945Z,11.77
2023-01-09T17:48:02.242Z,14.90
2023-01-09T17:50:34.748Z,12.87
2023-01-09T17:53:06.044Z,12.50
2023-01-09T17:55:38.091Z,13.43
2023-01-09T17:58:25.282Z,11.53
2023-01-09T18:00:57.506Z,14.93
2023-01-09T18:03:33.252Z,18.77
2023-01-09T18:06:04.888Z,19.23
2023-01-09T18:08:36.477Z,15.37
2023-01-09T18:11:12.336Z,19.27
2023-01-09T18:13:48.609Z,15.95
2023-01-09T18:18:57.681Z,18.63
2023-01-09T18:21:29.857Z,18.67
2023-01-09T18:24:01.877Z,20.13
2023-01-09T18:26:33.271Z,21.00
2023-01-09T18:29:04.527Z,22.17
2023-01-09T18:31:35.909Z,20.10
2023-01-09T18:34:09.124Z,16.80
2023-01-09T18:36:40.484Z,20.77
2023-01-09T18:39:12.031Z,21.53
2023-01-09T18:41:43.442Z,28.07
2023-01-09T18:44:14.757Z,20.37
2023-01-09T18:46:47.002Z,20.60
2023-01-09T18:49:18.455Z,19.93
2023-01-09T18:51:49.776Z,24.20
2023-01-09T18:54:21.062Z,20.70
2023-01-09T18:56:52.354Z,22.00
2023-01-09T18:59:23.630Z,24.53
2023-01-09T19:01:54.935Z,24.67
2023-01-09T19:04:27.093Z,21.43
2023-01-09T19:06:59.808Z,25.37
2023-01-09T19:09:31.062Z,24.00
2023-01-09T19:12:02.380Z,22.70
2023-01-09T19:14:33.659Z,24.63
2023-01-09T19:17:05.033Z,20.47
2023-01-09T19:19:36.369Z,24.73
2023-01-09T19:22:07.725Z,21.97
2023-01-09T19:24:39.075Z,22.53
2023-01-09T19:27:10.434Z,21.80
2023-01-09T19:29:41.770Z,21.17
2023-01-09T19:32:13.775Z,24.73
2023-01-09T19:34:45.060Z,21.30
2023-01-09T19:37:18.097Z,21.40
2023-01-09T19:39:49.475Z,21.17
2023-01-09T19:42:20.767Z,22.40
2023-01-09T19:44:52.097Z,19.53
2023-01-09T19:47:23.446Z,20.33
2023-01-09T19:49:55.268Z,19.97
2023-01-09T19:52:26.580Z,24.83
2023-01-09T19:54:57.890Z,22.40
2023-01-09T19:57:30.195Z,24.80
2023-01-09T20:00:01.522Z,21.67
2023-01-09T20:02:32.840Z,20.00
2023-01-09T20:05:04.454Z,19.43
2023-01-09T20:07:36.040Z,22.17
2023-01-09T20:10:07.651Z,19.90
2023-01-09T20:12:38.972Z,23.20
2023-01-09T20:15:14.665Z,25.70
2023-01-09T20:17:46.321Z,23.02
2023-01-09T20:22:48.036Z,24.00
2023-01-09T20:25:19.356Z,28.70
2023-01-09T20:27:50.632Z,23.03
2023-01-09T20:30:21.890Z,25.23
2023-01-09T20:32:53.917Z,23.37
2023-01-09T20:35:25.195Z,27.23
2023-01-09T20:37:56.523Z,22.27
2023-01-09T20:40:27.879Z,23.30
2023-01-09T20:42:59.145Z,20.23
2023-01-09T20:45:30.708Z,23.63
2023-01-09T20:48:02.074Z,23.03
2023-01-09T20:50:33.408Z,24.67
2023-01-09T20:53:07.082Z,26.23
2023-01-09T20:55:39.051Z,30.87
2023-01-09T20:58:10.404Z,25.33
2023-01-09T21:00:41.731Z,23.60
2023-01-09T21:03:15.361Z,26.67
2023-01-09T21:05:46.786Z,25.83
2023-01-09T21:08:18.128Z,27.57
2023-01-09T21:10:54.750Z,26.47
2023-01-09T21:13:26.441Z,31.67
2023-01-09T21:16:09.918Z,29.63
2023-01-09T21:18:43.226Z,26.83
2023-01-09T21:21:17.849Z,33.73
2023-01-09T21:23:54.699Z,27.03
2023-01-09T21:26:28.861Z,28.83
2023-01-09T21:29:01.655Z,30.57
2023-01-09T21:31:35.963Z,29.43
2023-01-09T21:34:08.016Z,29.97
2023-01-09T21:36:39.416Z,28.73
2023-01-09T21:39:10.812Z,30.20
2023-01-09T21:42:00.528Z,29.27
2023-01-09T21:44:50.561Z,24.60
2023-01-09T21:47:22.752Z,25.90
2023-01-09T21:49:54.035Z,22.40
2023-01-09T21:52:42.029Z,22.57
2023-01-09T21:55:13.686Z,23.13
2023-01-09T21:57:45.759Z,20.13
2023-01-09T22:00:20.928Z,24.70
2023-01-09T22:02:52.638Z,24.00
2023-01-09T22:05:24.845Z,27.60
2023-01-09T22:07:56.683Z,23.97
2023-01-09T22:10:28.750Z,24.30
2023-01-09T22:13:18.636Z,22.90
2023-01-09T22:15:50.577Z,21.73
2023-01-09T22:18:22.767Z,17.73
2023-01-09T22:20:57.547Z,25.67
2023-01-09T22:23:30.184Z,23.53
2023-01-09T22:26:13.109Z,18.40
2023-01-09T22:28:48.153Z,27.53
2023-01-09T22:31:28.682Z,19.63
2023-01-09T22:34:02.809Z,18.80
2023-01-09T22:36:34.711Z,17.57
2023-01-09T22:39:06.739Z,16.10
2023-01-09T22:41:39.838Z,15.33
2023-01-09T22:44:12.925Z,28.37
2023-01-09T22:46:44.815Z,18.67
2023-01-09T22:49:16.130Z,18.33
2023-01-09T22:51:47.427Z,22.00
2023-01-09T22:54:20.696Z,22.00
2023-01-09T22:56:51.956Z,19.70
2023-01-09T22:59:23.815Z,20.50
2023-01-09T23:01:56.754Z,16.43
2023-01-09T23:04:28.426Z,19.70
2023-01-09T23:06:59.690Z,18.97
2023-01-09T23:09:30.963Z,15.93
2023-01-09T23:12:02.300Z,20.77
2023-01-09T23:14:36.581Z,16.50
2023-01-09T23:17:10.320Z,17.73
2023-01-09T23:19:41.649Z,20.90
2023-01-09T23:22:12.925Z,17.77
2023-01-09T23:24:44.182Z,20.30
2023-01-09T23:27:15.581Z,17.73
2023-01-09T23:29:46.906Z,18.93
2023-01-09T23:32:18.298Z,17.67
2023-01-09T23:34:49.781Z,19.13
2023-01-09T23:37:21.035Z,19.10
2023-01-09T23:39:52.449Z,21.63
2023-01-09T23:42:42.519Z,14.80
2023-01-09T23:45:13.850Z,16.03
2023-01-09T23:47:45.166Z,21.87
2023-01-09T23:50:16.554Z,22.13
2023-01-09T23:52:47.813Z,13.97
2023-01-09T23:55:19.125Z,21.73
2023-01-09T23:57:56.811Z,13.77
